createdAt,value
2022-09-01T00:01:51.459Z,38.45
2022-09-01T00:04:23.381Z,38.85
2022-09-01T00:06:53.254Z,38.68
2022-09-01T00:09:23.704Z,38.58
2022-09-01T00:11:58.026Z,38.80
2022-09-01T00:14:38.533Z,38.82
2022-09-01T00:17:18.357Z,38.70
2022-09-01T00:19:46.682Z,38.45
2022-09-01T00:22:15.819Z,38.99
2022-09-01T00:24:43.022Z,38.73
2022-09-01T00:27:12.361Z,38.45
2022-09-01T00:29:48.621Z,38.98
2022-09-01T00:32:20.660Z,38.48
2022-09-01T00:34:49.659Z,38.47
2022-09-01T00:37:16.954Z,38.62
2022-09-01T00:39:43.969Z,38.70
2022-09-01T00:42:11.169Z,38.68
2022-09-01T00:44:38.479Z,38.72
2022-09-01T00:47:06.840Z,38.79
2022-09-01T00:49:38.860Z,38.96
2022-09-01T00:52:11.135Z,38.82
2022-09-01T00:54:42.564Z,38.99
2022-09-01T00:57:12.660Z,39.20
2022-09-01T00:59:47.235Z,38.95
2022-09-01T01:02:14.569Z,39.20
2022-09-01T01:04:43.822Z,39.26
2022-09-01T01:07:12.119Z,38.86
2022-09-01T01:09:44.113Z,39.14
2022-09-01T01:12:17.465Z,38.82
2022-09-01T01:14:50.575Z,39.06
2022-09-01T01:17:20.599Z,38.82
2022-09-01T01:20:10.763Z,39.17
2022-09-01T01:23:34.160Z,38.89
2022-09-01T01:26:25.008Z,39.04
2022-09-01T01:28:56.694Z,38.79
2022-09-01T01:31:39.422Z,39.07
2022-09-01T01:34:08.860Z,38.97
2022-09-01T01:36:50.149Z,38.99
2022-09-01T01:39:25.680Z,39.12
2022-09-01T01:42:15.038Z,39.19
2022-09-01T01:44:54.490Z,39.15
2022-09-01T01:47:24.319Z,39.07
2022-09-01T01:49:55.239Z,39.26
2022-09-01T01:52:26.382Z,38.99
2022-09-01T01:54:56.496Z,39.09
2022-09-01T01:57:25.399Z,39.38
2022-09-01T01:59:55.336Z,39.44
2022-09-01T02:02:29.562Z,39.37
2022-09-01T02:05:01.321Z,39.59
2022-09-01T02:07:28.260Z,39.23
2022-09-01T02:10:04.443Z,39.37
2022-09-01T02:12:39.881Z,39.66
2022-09-01T02:15:09.264Z,39.70
2022-09-01T02:17:43.465Z,39.45
2022-09-01T02:20:17.197Z,39.57
2022-09-01T02:22:46.958Z,39.47
2022-09-01T02:25:21.064Z,39.23
2022-09-01T02:28:06.566Z,39.55
2022-09-01T02:30:37.791Z,39.62
2022-09-01T02:33:06.868Z,39.61
2022-09-01T02:35:35.675Z,39.67
2022-09-01T02:38:08.291Z,39.83
2022-09-01T02:40:44.102Z,39.63
2022-09-01T02:43:14.379Z,39.60
2022-09-01T02:45:57.973Z,39.55
2022-09-01T02:48:34.072Z,39.62
2022-09-01T02:51:04.280Z,39.88
2022-09-01T02:53:47.164Z,39.97
2022-09-01T02:56:16.756Z,40.07
2022-09-01T02:58:46.467Z,39.95
2022-09-01T03:01:48.882Z,40.11
2022-09-01T03:04:21.774Z,39.71
2022-09-01T03:06:54.066Z,39.99
2022-09-01T03:09:23.561Z,40.15
2022-09-01T03:12:01.111Z,40.05
2022-09-01T03:17:15.123Z,40.15
2022-09-01T03:20:06.514Z,40.24
2022-09-01T03:22:36.765Z,40.19
2022-09-01T03:25:06.762Z,39.99
2022-09-01T03:27:39.643Z,40.24
2022-09-01T03:30:32.062Z,39.90
2022-09-01T03:32:59.945Z,40.01
2022-09-01T03:35:28.618Z,40.32
2022-09-01T03:38:05.397Z,40.07
2022-09-01T03:40:37.190Z,40.03
2022-09-01T03:43:13.594Z,40.25
2022-09-01T03:45:41.339Z,40.16
2022-09-01T03:48:11.142Z,40.44
2022-09-01T03:50:47.081Z,39.77
2022-09-01T03:53:32.404Z,40.33
2022-09-01T03:56:07.802Z,40.26
2022-09-01T03:58:35.002Z,40.08
2022-09-01T04:01:04.895Z,40.24
2022-09-01T04:03:39.749Z,40.28
2022-09-01T04:06:12.389Z,40.14
2022-09-01T04:08:43.025Z,40.38
2022-09-01T04:11:19.571Z,40.39
2022-09-01T04:14:01.803Z,40.36
2022-09-01T04:16:55.805Z,40.37
2022-09-01T04:19:30.027Z,40.49
2022-09-01T04:22:00.401Z,40.28
2022-09-01T04:24:33.018Z,40.57
2022-09-01T04:27:12.040Z,40.61
2022-09-01T04:29:39.073Z,40.46
2022-09-01T04:32:09.776Z,40.44
2022-09-01T04:34:39.938Z,40.58
2022-09-01T04:37:13.240Z,40.30
2022-09-01T04:39:51.279Z,40.55
2022-09-01T04:42:24.114Z,40.54
2022-09-01T04:44:57.711Z,40.70
2022-09-01T04:47:35.604Z,40.49
2022-09-01T04:50:14.107Z,40.64
2022-09-01T04:52:42.395Z,40.52
2022-09-01T04:55:17.552Z,40.56
2022-09-01T04:57:49.795Z,40.76
2022-09-01T05:00:22.673Z,40.68
2022-09-01T05:02:55.514Z,40.81
2022-09-01T05:05:23.953Z,40.57
2022-09-01T05:07:55.523Z,40.95
2022-09-01T05:10:29.177Z,40.92
2022-09-01T05:12:57.234Z,40.99
2022-09-01T05:15:24.293Z,40.87
2022-09-01T05:17:52.701Z,40.66
2022-09-01T05:20:20.788Z,40.75
2022-09-01T05:22:47.752Z,40.82
2022-09-01T05:25:14.658Z,40.76
2022-09-01T05:27:53.838Z,40.97
2022-09-01T05:30:20.727Z,40.93
2022-09-01T05:32:49.140Z,40.66
2022-09-01T05:35:16.367Z,40.82
2022-09-01T05:37:43.538Z,40.98
2022-09-01T05:40:16.124Z,41.07
2022-09-01T05:42:46.509Z,40.48
2022-09-01T05:45:14.326Z,40.83
2022-09-01T05:47:42.149Z,40.73
2022-09-01T05:50:14.235Z,40.68
2022-09-01T05:52:44.493Z,41.06
2022-09-01T05:55:11.417Z,40.74
2022-09-01T05:57:40.251Z,40.92
2022-09-01T06:00:13.923Z,41.08
2022-09-01T06:02:43.007Z,40.92
2022-09-01T06:05:11.015Z,40.97
2022-09-01T06:07:40.848Z,41.62
2022-09-01T06:10:08.516Z,41.05
2022-09-01T06:12:35.487Z,41.34
2022-09-01T06:15:02.284Z,41.34
2022-09-01T06:17:30.828Z,41.39
2022-09-01T06:20:10.541Z,41.17
2022-09-01T06:22:37.714Z,41.44
2022-09-01T06:25:06.711Z,41.16
2022-09-01T06:27:38.767Z,41.21
2022-09-01T06:30:14.996Z,41.32
2022-09-01T06:32:44.151Z,41.41
2022-09-01T06:35:12.073Z,41.49
2022-09-01T06:37:39.688Z,41.50
2022-09-01T06:40:10.631Z,41.52
2022-09-01T06:42:37.877Z,41.54
2022-09-01T06:45:10.298Z,41.20
2022-09-01T06:47:37.352Z,41.46
2022-09-01T06:50:08.558Z,41.32
2022-09-01T06:55:23.053Z,41.25
2022-09-01T06:58:09.242Z,41.18
2022-09-01T07:00:42.130Z,41.19
2022-09-01T07:03:10.987Z,41.31
2022-09-01T07:06:00.714Z,41.44
2022-09-01T07:08:28.778Z,41.04
2022-09-01T07:16:40.474Z,41.15
2022-09-01T07:19:18.476Z,41.20
2022-09-01T07:22:06.769Z,41.30
2022-09-01T07:24:33.204Z,41.30
2022-09-01T07:27:07.686Z,41.07
2022-09-01T07:29:35.332Z,41.34
2022-09-01T07:34:50.254Z,41.00
2022-09-01T07:38:47.414Z,40.97
2022-09-01T07:43:12.973Z,41.04
2022-09-01T07:45:47.851Z,40.85
2022-09-01T07:51:35.622Z,40.85
2022-09-01T07:53:54.909Z,41.07
2022-09-01T07:56:24.191Z,40.84
2022-09-01T07:58:52.431Z,40.99
2022-09-01T08:01:25.369Z,40.91
2022-09-01T08:03:56.980Z,40.80
2022-09-01T08:06:27.930Z,41.00
2022-09-01T08:09:01.011Z,40.97
2022-09-01T08:14:18.100Z,40.88
2022-09-01T08:16:53.146Z,40.72
2022-09-01T08:19:20.783Z,40.42
2022-09-01T08:21:47.692Z,40.58
2022-09-01T08:24:14.598Z,40.35
2022-09-01T08:26:41.787Z,40.63
2022-09-01T08:29:09.572Z,40.75
2022-09-01T08:31:36.652Z,40.78
2022-09-01T08:34:05.609Z,40.74
2022-09-01T08:36:33.697Z,40.23
2022-09-01T08:39:04.932Z,40.78
2022-09-01T08:42:09.978Z,40.21
2022-09-01T08:45:07.143Z,40.60
2022-09-01T08:47:50.448Z,40.02
2022-09-01T08:50:23.088Z,39.99
2022-09-01T08:53:09.157Z,39.95
2022-09-01T08:55:42.378Z,40.18
2022-09-01T08:58:17.487Z,40.04
2022-09-01T09:00:55.113Z,39.74
2022-09-01T09:03:40.930Z,40.36
2022-09-01T09:06:16.160Z,40.02
2022-09-01T09:09:03.582Z,40.03
2022-09-01T09:11:50.378Z,39.67
2022-09-01T09:14:55.300Z,39.44
2022-09-01T09:17:29.752Z,39.60
2022-09-01T09:19:56.716Z,39.85
2022-09-01T09:22:23.655Z,39.93
2022-09-01T09:24:56.328Z,39.21
2022-09-01T09:27:23.527Z,39.63
2022-09-01T09:29:56.920Z,39.64
2022-09-01T09:33:15.361Z,39.71
2022-09-01T09:35:34.162Z,39.44
2022-09-01T09:38:21.139Z,39.73
2022-09-01T09:44:04.669Z,39.69
2022-09-01T09:46:37.990Z,39.47
2022-09-01T09:49:10.242Z,39.42
2022-09-01T09:51:42.932Z,39.07
2022-09-01T09:54:25.569Z,39.10
2022-09-01T09:57:11.181Z,39.13
2022-09-01T10:00:01.740Z,38.95
2022-09-01T10:02:32.712Z,39.56
2022-09-01T10:05:26.172Z,38.77
2022-09-01T10:07:55.940Z,39.27
2022-09-01T10:10:57.309Z,38.67
2022-09-01T10:13:32.583Z,38.38
2022-09-01T10:16:03.699Z,39.01
2022-09-01T10:18:41.856Z,39.14
2022-09-01T10:21:22.717Z,39.21
2022-09-01T10:23:49.775Z,38.80
2022-09-01T10:26:24.223Z,38.42
2022-09-01T10:29:11.337Z,38.26
2022-09-01T10:31:40.855Z,38.68
2022-09-01T10:34:15.260Z,38.69
2022-09-01T10:36:47.047Z,38.65
2022-09-01T10:39:16.476Z,38.60
2022-09-01T10:41:53.310Z,38.06
2022-09-01T10:44:55.376Z,38.46
2022-09-01T10:47:30.053Z,38.40
2022-09-01T10:50:23.040Z,38.08
2022-09-01T10:52:51.245Z,37.71
2022-09-01T10:55:25.005Z,37.74
2022-09-01T10:59:31.111Z,37.98
2022-09-01T11:01:41.080Z,37.80
2022-09-01T11:03:57.528Z,37.73
2022-09-01T11:09:44.957Z,37.50
2022-09-01T11:12:29.974Z,37.41
2022-09-01T11:15:35.539Z,37.92
2022-09-01T11:18:08.067Z,37.96
2022-09-01T11:20:45.576Z,38.26
2022-09-01T11:23:30.589Z,37.57
2022-09-01T11:26:21.167Z,37.64
2022-09-01T11:28:48.791Z,37.51
2022-09-01T11:31:26.144Z,37.68
2022-09-01T11:33:58.455Z,37.00
2022-09-01T11:36:37.451Z,37.48
2022-09-01T11:39:20.813Z,36.99
2022-09-01T11:42:19.057Z,37.71
2022-09-01T11:44:54.094Z,37.40
2022-09-01T11:47:46.779Z,37.01
2022-09-01T11:50:16.543Z,37.16
2022-09-01T11:53:05.465Z,37.50
2022-09-01T11:55:40.017Z,37.45
2022-09-01T11:58:15.713Z,37.09
2022-09-01T12:00:45.172Z,37.38
2022-09-01T12:03:25.128Z,36.70
2022-09-01T12:06:01.813Z,37.40
2022-09-01T12:08:31.909Z,37.19
2022-09-01T12:11:07.842Z,36.46
2022-09-01T12:13:35.490Z,37.12
2022-09-01T12:16:17.856Z,36.39
2022-09-01T12:18:48.720Z,36.65
2022-09-01T12:21:32.657Z,36.86
2022-09-01T12:24:21.517Z,36.81
2022-09-01T12:26:51.230Z,36.44
2022-09-01T12:29:19.570Z,36.86
2022-09-01T12:31:50.473Z,36.49
2022-09-01T12:34:35.776Z,36.24
2022-09-01T12:37:19.091Z,36.26
2022-09-01T12:39:51.930Z,36.50
2022-09-01T12:42:19.258Z,35.92
2022-09-01T12:44:48.322Z,35.90
2022-09-01T12:47:48.157Z,35.69
2022-09-01T12:50:16.496Z,35.71
2022-09-01T12:52:52.790Z,36.16
2022-09-01T12:55:53.046Z,36.06
2022-09-01T12:58:26.757Z,36.14
2022-09-01T13:01:24.903Z,36.30
2022-09-01T13:04:15.756Z,35.96
2022-09-01T13:06:42.697Z,36.18
2022-09-01T13:09:10.274Z,35.47
2022-09-01T13:14:25.641Z,35.86
2022-09-01T13:16:52.603Z,36.11
2022-09-01T13:19:27.409Z,35.50
2022-09-01T13:21:55.832Z,35.92
2022-09-01T13:24:28.482Z,35.93
2022-09-01T13:29:45.002Z,35.64
2022-09-01T13:32:20.844Z,35.23
2022-09-01T13:34:51.926Z,36.09
2022-09-01T13:37:20.708Z,35.76
2022-09-01T13:39:48.548Z,35.66
2022-09-01T13:42:17.463Z,35.47
2022-09-01T13:44:44.825Z,35.62
2022-09-01T13:50:10.359Z,35.05
2022-09-01T13:52:40.811Z,35.17
2022-09-01T13:55:11.306Z,35.09
2022-09-01T13:57:38.637Z,35.23
2022-09-01T14:00:10.900Z,35.66
2022-09-01T14:02:44.658Z,35.45
2022-09-01T14:05:12.182Z,35.56
2022-09-01T14:07:39.136Z,35.59
2022-09-01T14:10:07.317Z,35.22
2022-09-01T14:12:35.043Z,35.25
2022-09-01T14:15:19.187Z,34.82
2022-09-01T14:17:51.921Z,34.99
2022-09-01T14:20:23.097Z,34.48
2022-09-01T14:22:50.944Z,34.92
2022-09-01T14:25:20.201Z,34.56
2022-09-01T14:27:47.888Z,35.37
2022-09-01T14:30:20.074Z,34.46
2022-09-01T14:32:47.532Z,34.51
2022-09-01T14:35:16.435Z,34.79
2022-09-01T14:37:44.910Z,34.68
2022-09-01T14:40:16.920Z,34.75
2022-09-01T14:42:49.420Z,35.00
2022-09-01T14:45:25.459Z,34.51
2022-09-01T14:47:55.053Z,34.44
2022-09-01T14:50:23.675Z,34.21
2022-09-01T14:52:56.158Z,34.65
2022-09-01T14:55:25.430Z,34.45
2022-09-01T14:57:52.876Z,34.18
2022-09-01T15:00:20.586Z,35.00
2022-09-01T15:02:48.011Z,34.06
2022-09-01T15:05:15.902Z,34.44
2022-09-01T15:07:43.463Z,34.33
2022-09-01T15:10:16.070Z,34.62
2022-09-01T15:12:53.634Z,34.30
2022-09-01T15:15:20.562Z,34.77
2022-09-01T15:17:47.623Z,34.62
2022-09-01T15:20:33.537Z,34.62
2022-09-01T15:23:01.740Z,34.56
2022-09-01T15:25:28.697Z,34.42
2022-09-01T15:27:55.787Z,34.42
2022-09-01T15:30:22.802Z,34.05
2022-09-01T15:32:52.460Z,33.87
2022-09-01T15:35:20.422Z,34.24
2022-09-01T15:37:48.434Z,34.64
2022-09-01T15:40:17.068Z,34.03
2022-09-01T15:42:44.232Z,33.71
2022-09-01T15:45:17.481Z,34.01
2022-09-01T15:47:45.835Z,33.70
2022-09-01T15:50:21.062Z,34.08
2022-09-01T15:52:50.646Z,33.62
2022-09-01T15:55:23.078Z,34.00
2022-09-01T15:57:50.967Z,34.11
2022-09-01T16:00:18.858Z,33.89
2022-09-01T16:02:45.815Z,34.40
2022-09-01T16:05:13.189Z,34.04
2022-09-01T16:07:40.827Z,33.72
2022-09-01T16:10:11.986Z,34.32
2022-09-01T16:12:43.409Z,33.72
2022-09-01T16:15:14.653Z,33.94
2022-09-01T16:17:53.763Z,33.94
2022-09-01T16:20:28.549Z,33.44
2022-09-01T16:23:07.117Z,34.07
2022-09-01T16:25:34.728Z,33.28
2022-09-01T16:28:07.240Z,33.51
2022-09-01T16:30:34.669Z,33.64
2022-09-01T16:33:03.982Z,33.39
2022-09-01T16:35:47.923Z,33.74
2022-09-01T16:38:41.199Z,34.18
2022-09-01T16:41:18.171Z,34.26
2022-09-01T16:44:14.306Z,33.70
2022-09-01T16:46:47.920Z,33.23
2022-09-01T16:49:14.877Z,33.95
2022-09-01T16:52:05.637Z,34.12
2022-09-01T16:54:47.381Z,34.14
2022-09-01T16:57:35.822Z,34.20
2022-09-01T17:00:08.551Z,33.25
2022-09-01T17:03:19.156Z,34.18
2022-09-01T17:05:56.786Z,33.86
2022-09-01T17:08:31.272Z,34.21
2022-09-01T17:11:26.926Z,33.31
2022-09-01T17:13:55.933Z,34.18
2022-09-01T17:16:37.376Z,34.01
2022-09-01T17:19:08.554Z,33.86
2022-09-01T17:22:03.003Z,33.69
2022-09-01T17:24:39.243Z,33.46
2022-09-01T17:27:14.112Z,33.25
2022-09-01T17:29:51.752Z,33.92
2022-09-01T17:33:13.039Z,33.53
2022-09-01T17:36:18.640Z,33.65
2022-09-01T17:39:01.009Z,33.27
2022-09-01T17:41:56.494Z,33.56
2022-09-01T17:44:36.259Z,33.49
2022-09-01T17:47:25.826Z,33.59
2022-09-01T17:49:55.596Z,33.17
2022-09-01T17:52:40.718Z,33.07
2022-09-01T17:55:36.364Z,33.25
2022-09-01T17:58:25.598Z,33.76
2022-09-01T18:01:01.688Z,33.35
2022-09-01T18:03:53.739Z,33.61
2022-09-01T18:06:34.204Z,33.28
2022-09-01T18:09:03.130Z,33.89
2022-09-01T18:11:42.039Z,33.03
2022-09-01T18:14:18.548Z,33.01
2022-09-01T18:17:31.454Z,33.91
2022-09-01T18:20:11.877Z,33.81
2022-09-01T18:23:06.558Z,33.79
2022-09-01T18:25:55.249Z,33.45
2022-09-01T18:28:22.310Z,33.18
2022-09-01T18:31:01.600Z,33.59
2022-09-01T18:33:30.126Z,33.15
2022-09-01T18:36:12.398Z,33.80
2022-09-01T18:39:14.438Z,33.94
2022-09-01T18:41:56.169Z,33.08
2022-09-01T18:44:47.868Z,32.95
2022-09-01T18:47:22.139Z,33.24
2022-09-01T18:50:25.029Z,33.82
2022-09-01T18:52:58.826Z,33.19
2022-09-01T18:55:42.278Z,33.47
2022-09-01T18:58:19.525Z,33.09
2022-09-01T19:01:03.051Z,33.18
2022-09-01T19:03:52.199Z,33.64
2022-09-01T19:06:37.920Z,32.93
2022-09-01T19:09:22.728Z,33.54
2022-09-01T19:12:08.006Z,33.20
2022-09-01T19:14:37.855Z,33.11
2022-09-01T19:17:11.386Z,33.70
2022-09-01T19:19:48.019Z,33.54
2022-09-01T19:22:45.366Z,33.61
2022-09-01T19:25:34.281Z,33.04
2022-09-01T19:28:07.074Z,32.99
2022-09-01T19:30:40.282Z,33.20
2022-09-01T19:33:07.843Z,34.00
2022-09-01T19:35:36.551Z,33.07
2022-09-01T19:38:19.142Z,33.95
2022-09-01T19:40:52.432Z,33.74
2022-09-01T19:43:25.625Z,33.74
2022-09-01T19:46:23.667Z,33.29
2022-09-01T19:49:02.471Z,33.53
2022-09-01T19:51:45.502Z,33.78
2022-09-01T19:54:16.204Z,34.00
2022-09-01T19:56:57.629Z,33.37
2022-09-01T19:59:43.695Z,33.08
2022-09-01T20:02:21.210Z,33.42
2022-09-01T20:05:12.849Z,33.09
2022-09-01T20:07:45.934Z,33.74
2022-09-01T20:10:31.413Z,33.47
2022-09-01T20:13:35.713Z,33.28
2022-09-01T20:16:09.388Z,33.72
2022-09-01T20:18:53.537Z,33.25
2022-09-01T20:21:21.481Z,33.67
2022-09-01T20:24:00.860Z,33.79
2022-09-01T20:26:55.359Z,33.68
2022-09-01T20:29:32.731Z,33.74
2022-09-01T20:32:01.961Z,33.93
2022-09-01T20:34:52.910Z,33.38
2022-09-01T20:37:32.603Z,33.52
2022-09-01T20:40:02.097Z,33.66
2022-09-01T20:42:43.976Z,33.52
2022-09-01T20:45:19.172Z,33.76
2022-09-01T20:48:01.756Z,34.07
2022-09-01T20:50:43.078Z,34.29
2022-09-01T20:53:18.454Z,34.14
2022-09-01T20:55:56.471Z,33.86
2022-09-01T20:58:33.542Z,33.58
2022-09-01T21:01:27.377Z,34.19
2022-09-01T21:04:14.543Z,33.79
2022-09-01T21:06:55.614Z,33.98
2022-09-01T21:09:52.641Z,33.74
2022-09-01T21:12:38.620Z,34.63
2022-09-01T21:15:20.121Z,33.70
2022-09-01T21:17:57.361Z,33.86
2022-09-01T21:20:59.009Z,34.22
2022-09-01T21:23:28.516Z,34.08
2022-09-01T21:25:56.191Z,34.27
2022-09-01T21:28:26.416Z,34.11
2022-09-01T21:30:55.092Z,34.20
2022-09-01T21:33:23.881Z,33.99
2022-09-01T21:35:52.455Z,34.26
2022-09-01T21:38:19.804Z,34.24
2022-09-01T21:41:10.855Z,34.00
2022-09-01T21:43:47.460Z,34.25
2022-09-01T21:46:16.723Z,34.01
2022-09-01T21:48:43.879Z,33.98
2022-09-01T21:51:12.198Z,34.35
2022-09-01T21:53:39.109Z,33.73
2022-09-01T21:56:08.282Z,34.22
2022-09-01T21:58:41.034Z,34.01
2022-09-01T22:01:10.651Z,33.93
2022-09-01T22:03:41.127Z,34.30
2022-09-01T22:06:12.204Z,33.89
2022-09-01T22:08:39.578Z,34.24
2022-09-01T22:11:11.442Z,34.01
2022-09-01T22:13:45.911Z,34.01
2022-09-01T22:16:20.933Z,34.21
2022-09-01T22:18:48.089Z,33.81
2022-09-01T22:21:16.544Z,34.55
2022-09-01T22:23:53.260Z,34.42
2022-09-01T22:26:26.422Z,34.34
2022-09-01T22:29:01.714Z,34.35
2022-09-01T22:31:49.902Z,33.89
2022-09-01T22:34:20.152Z,33.94
2022-09-01T22:36:50.187Z,34.03
2022-09-01T22:39:18.883Z,34.25
2022-09-01T22:41:47.323Z,33.89
2022-09-01T22:44:14.744Z,33.96
2022-09-01T22:46:44.833Z,33.97
2022-09-01T22:49:14.524Z,34.54
2022-09-01T22:51:45.758Z,34.00
2022-09-01T22:54:20.987Z,34.49
2022-09-01T22:56:57.356Z,34.09
2022-09-01T22:59:30.760Z,34.36
2022-09-01T23:02:08.065Z,34.06
2022-09-01T23:04:35.157Z,34.10
2022-09-01T23:07:06.599Z,33.88
2022-09-01T23:09:36.055Z,34.00
2022-09-01T23:12:05.009Z,34.51
2022-09-01T23:14:31.975Z,34.08
2022-09-01T23:17:04.593Z,34.21
2022-09-01T23:19:31.618Z,34.50
2022-09-01T23:21:59.119Z,34.60
2022-09-01T23:24:27.624Z,34.30
2022-09-01T23:27:01.944Z,34.25
2022-09-01T23:29:34.009Z,33.85
2022-09-01T23:32:04.479Z,34.26
2022-09-01T23:34:34.008Z,34.11
2022-09-01T23:37:00.999Z,34.37
2022-09-01T23:39:30.098Z,34.31
2022-09-01T23:42:00.282Z,34.04
2022-09-01T23:44:32.060Z,33.93
2022-09-01T23:46:59.738Z,34.07
2022-09-01T23:49:26.822Z,34.31
2022-09-01T23:51:58.973Z,34.55
2022-09-01T23:54:26.019Z,34.56
2022-09-01T23:56:53.131Z,34.14
2022-09-01T23:59:27.460Z,34.20
